createdAt,value
2018-03-30T00:02:01.396Z,100198
2018-03-30T00:04:29.575Z,100203
2018-03-30T00:06:57.706Z,100201
2018-03-30T00:09:43.644Z,100203
2018-03-30T00:12:11.769Z,100200
2018-03-30T00:14:39.902Z,100195
2018-03-30T00:17:08.051Z,100205
2018-03-30T00:19:36.182Z,100209
2018-03-30T00:22:04.359Z,100200
2018-03-30T00:24:32.479Z,100211
2018-03-30T00:27:00.638Z,100214
2018-03-30T00:29:28.842Z,100213
2018-03-30T00:31:56.995Z,100217
2018-03-30T00:34:25.159Z,100223
2018-03-30T00:36:53.293Z,100232
2018-03-30T00:39:21.424Z,100235
2018-03-30T00:41:49.573Z,100233
2018-03-30T00:44:17.700Z,100238
2018-03-30T00:46:45.832Z,100234
2018-03-30T00:49:13.999Z,100235
2018-03-30T00:51:42.132Z,100242
2018-03-30T00:54:10.284Z,100236
2018-03-30T00:56:38.428Z,100245
2018-03-30T00:59:06.560Z,100251
2018-03-30T01:01:35.492Z,100240
2018-03-30T01:04:03.632Z,100246
2018-03-30T01:06:32.555Z,100244
2018-03-30T01:09:00.693Z,100255
2018-03-30T01:11:29.583Z,100261
2018-03-30T01:13:58.504Z,100262
2018-03-30T01:16:27.269Z,100258
2018-03-30T01:18:55.440Z,100261
2018-03-30T01:21:24.355Z,100265
2018-03-30T01:23:52.526Z,100268
2018-03-30T01:26:20.658Z,100266
2018-03-30T01:28:49.575Z,100259
2018-03-30T01:31:17.716Z,100270
2018-03-30T01:33:45.886Z,100269
2018-03-30T01:36:14.096Z,100278
2018-03-30T01:38:42.269Z,100276
2018-03-30T01:41:10.407Z,100270
2018-03-30T01:43:39.308Z,100280
2018-03-30T01:46:08.247Z,100277
2018-03-30T01:48:36.448Z,100267
2018-03-30T01:51:04.594Z,100277
2018-03-30T01:53:32.750Z,100288
2018-03-30T01:56:00.887Z,100290
2018-03-30T01:58:29.806Z,100288
2018-03-30T02:00:57.948Z,100289
2018-03-30T02:03:26.873Z,100288
2018-03-30T02:05:55.013Z,100289
2018-03-30T02:08:23.207Z,100299
2018-03-30T02:10:51.334Z,100297
2018-03-30T02:13:19.456Z,100301
2018-03-30T02:15:47.608Z,100298
2018-03-30T02:18:17.122Z,100301
2018-03-30T02:20:45.289Z,100298
2018-03-30T02:23:14.207Z,100304
2018-03-30T02:25:42.332Z,100308
2018-03-30T02:28:10.496Z,100304
2018-03-30T02:30:38.622Z,100303
2018-03-30T02:33:06.755Z,100302
2018-03-30T02:35:35.689Z,100311
2018-03-30T02:38:03.805Z,100312
2018-03-30T02:40:31.967Z,100312
2018-03-30T02:43:00.255Z,100317
2018-03-30T02:45:28.406Z,100313
2018-03-30T02:47:56.538Z,100311
2018-03-30T02:50:24.673Z,100309
2018-03-30T02:52:53.490Z,100303
2018-03-30T02:55:21.628Z,100308
2018-03-30T02:57:50.401Z,100300
2018-03-30T03:00:18.531Z,100300
2018-03-30T03:02:46.658Z,100305
2018-03-30T03:05:14.808Z,100303
2018-03-30T03:07:42.951Z,100307
2018-03-30T03:10:11.087Z,100296
2018-03-30T03:12:40.017Z,100292
2018-03-30T03:15:08.159Z,100300
2018-03-30T03:17:37.052Z,100306
2018-03-30T03:20:06.180Z,100308
2018-03-30T03:22:34.352Z,100300
2018-03-30T03:25:02.503Z,100297
2018-03-30T03:27:30.745Z,100300
2018-03-30T03:29:58.902Z,100295
2018-03-30T03:32:27.038Z,100293
2018-03-30T03:34:55.183Z,100303
2018-03-30T03:37:24.096Z,100299
2018-03-30T03:39:52.242Z,100305
2018-03-30T03:42:22.414Z,100298
2018-03-30T03:44:50.567Z,100300
2018-03-30T03:47:18.947Z,100293
2018-03-30T03:49:47.100Z,100308
2018-03-30T03:52:15.231Z,100306
2018-03-30T03:54:43.350Z,100322
2018-03-30T03:57:11.491Z,100298
2018-03-30T03:59:40.392Z,100301
2018-03-30T04:02:09.288Z,100298
2018-03-30T04:04:38.627Z,100300
2018-03-30T04:07:06.759Z,100301
2018-03-30T04:09:35.653Z,100304
2018-03-30T04:12:03.849Z,100302
2018-03-30T04:14:32.043Z,100298
2018-03-30T04:17:00.194Z,100310
2018-03-30T04:19:28.324Z,100311
2018-03-30T04:21:57.928Z,100306
2018-03-30T04:24:26.857Z,100313
2018-03-30T04:26:55.023Z,100313
2018-03-30T04:29:23.158Z,100320
2018-03-30T04:31:51.311Z,100314
2018-03-30T04:34:19.451Z,100326
2018-03-30T04:36:47.588Z,100325
2018-03-30T04:39:16.511Z,100323
2018-03-30T04:41:44.648Z,100318
2018-03-30T04:44:13.568Z,100339
2018-03-30T04:46:41.683Z,100332
2018-03-30T04:49:09.827Z,100324
2018-03-30T04:51:37.992Z,100338
2018-03-30T04:54:06.123Z,100337
2018-03-30T04:56:35.050Z,100336
2018-03-30T04:59:03.195Z,100335
2018-03-30T05:01:32.595Z,100336
2018-03-30T05:04:01.532Z,100332
2018-03-30T05:06:29.692Z,100321
2018-03-30T05:08:57.819Z,100333
2018-03-30T05:11:26.932Z,100326
2018-03-30T05:13:55.828Z,100330
2018-03-30T05:16:23.999Z,100324
2018-03-30T05:18:52.126Z,100314
2018-03-30T05:21:20.248Z,100324
2018-03-30T05:23:48.397Z,100324
2018-03-30T05:26:17.305Z,100335
2018-03-30T05:28:45.467Z,100337
2018-03-30T05:31:14.387Z,100332
2018-03-30T05:33:42.512Z,100332
2018-03-30T05:36:11.101Z,100323
2018-03-30T05:38:39.252Z,100326
2018-03-30T05:41:07.395Z,100337
2018-03-30T05:43:35.926Z,100331
2018-03-30T05:46:04.087Z,100340
2018-03-30T05:48:32.207Z,100330
2018-03-30T05:51:00.391Z,100336
2018-03-30T05:53:28.558Z,100346
2018-03-30T05:55:56.677Z,100347
2018-03-30T05:58:24.836Z,100343
2018-03-30T06:00:52.956Z,100348
2018-03-30T06:03:21.092Z,100348
2018-03-30T06:05:49.255Z,100352
2018-03-30T06:08:17.399Z,100363
2018-03-30T06:10:45.545Z,100360
2018-03-30T06:13:13.742Z,100345
2018-03-30T06:15:41.891Z,100351
2018-03-30T06:18:10.044Z,100351
2018-03-30T06:20:38.930Z,100351
2018-03-30T06:23:07.067Z,100357
2018-03-30T06:25:35.203Z,100356
2018-03-30T06:28:03.371Z,100367
2018-03-30T06:30:31.504Z,100365
2018-03-30T06:32:59.631Z,100372
2018-03-30T06:35:27.825Z,100357
2018-03-30T06:37:56.087Z,100364
2018-03-30T06:40:24.247Z,100381
2018-03-30T06:42:52.377Z,100371
2018-03-30T06:45:20.520Z,100375
2018-03-30T06:47:48.651Z,100378
2018-03-30T06:50:16.795Z,100374
2018-03-30T06:52:44.949Z,100369
2018-03-30T06:55:13.084Z,100370
2018-03-30T06:57:41.269Z,100383
2018-03-30T07:00:09.403Z,100377
2018-03-30T07:02:38.324Z,100379
2018-03-30T07:05:06.471Z,100377
2018-03-30T07:07:34.641Z,100378
2018-03-30T07:10:02.783Z,100385
2018-03-30T07:12:30.952Z,100378
2018-03-30T07:14:59.089Z,100381
2018-03-30T07:17:27.263Z,100386
2018-03-30T07:19:55.403Z,100382
2018-03-30T07:22:23.601Z,100384
2018-03-30T07:24:52.407Z,100389
2018-03-30T07:27:20.585Z,100397
2018-03-30T07:29:48.752Z,100393
2018-03-30T07:32:17.056Z,100386
2018-03-30T07:34:45.199Z,100392
2018-03-30T07:37:13.368Z,100397
2018-03-30T07:39:41.503Z,100398
2018-03-30T07:42:09.650Z,100393
2018-03-30T07:44:38.578Z,100398
2018-03-30T07:47:06.761Z,100396
2018-03-30T07:49:34.892Z,100395
2018-03-30T07:52:03.840Z,100395
2018-03-30T07:54:31.995Z,100405
2018-03-30T07:57:00.153Z,100412
2018-03-30T07:59:28.306Z,100421
2018-03-30T08:01:57.207Z,100414
2018-03-30T08:04:26.146Z,100418
2018-03-30T08:06:54.280Z,100418
2018-03-30T08:09:22.415Z,100418
2018-03-30T08:11:50.583Z,100425
2018-03-30T08:14:18.716Z,100438
2018-03-30T08:16:46.847Z,100430
2018-03-30T08:19:15.792Z,100438
2018-03-30T08:21:43.955Z,100434
2018-03-30T08:24:12.459Z,100432
2018-03-30T08:26:40.684Z,100437
2018-03-30T08:29:08.879Z,100434
2018-03-30T08:31:37.054Z,100434
2018-03-30T08:34:05.195Z,100434
2018-03-30T08:36:33.419Z,100437
2018-03-30T08:39:02.266Z,100437
2018-03-30T08:41:30.428Z,100447
2018-03-30T08:43:59.457Z,100439
2018-03-30T08:46:27.607Z,100434
2018-03-30T08:48:55.799Z,100425
2018-03-30T08:51:23.948Z,100425
2018-03-30T08:53:52.088Z,100428
2018-03-30T08:56:20.411Z,100423
2018-03-30T08:58:48.540Z,100421
2018-03-30T09:01:16.683Z,100416
2018-03-30T09:03:44.972Z,100423
2018-03-30T09:06:13.111Z,100429
2018-03-30T09:08:41.264Z,100415
2018-03-30T09:11:10.222Z,100415
2018-03-30T09:13:38.359Z,100415
2018-03-30T09:16:06.504Z,100420
2018-03-30T09:18:34.657Z,100423
2018-03-30T09:21:02.791Z,100417
2018-03-30T09:23:30.952Z,100417
2018-03-30T09:25:59.129Z,100425
2018-03-30T09:28:27.272Z,100410
2018-03-30T09:30:55.415Z,100401
2018-03-30T09:33:28.564Z,100406
2018-03-30T09:35:57.208Z,100394
2018-03-30T09:38:25.339Z,100393
2018-03-30T09:40:53.496Z,100387
2018-03-30T09:43:21.624Z,100383
2018-03-30T09:45:49.760Z,100377
2018-03-30T09:48:17.917Z,100367
2018-03-30T09:50:46.059Z,100363
2018-03-30T09:53:14.235Z,100362
2018-03-30T09:55:42.373Z,100366
2018-03-30T09:58:11.475Z,100364
2018-03-30T10:00:44.251Z,100360
2018-03-30T10:03:12.435Z,100358
2018-03-30T10:05:40.580Z,100356
2018-03-30T10:08:09.491Z,100346
2018-03-30T10:10:38.416Z,100343
2018-03-30T10:13:06.671Z,100345
2018-03-30T10:15:34.906Z,100340
2018-03-30T10:18:03.145Z,100338
2018-03-30T10:20:31.299Z,100342
2018-03-30T10:22:59.535Z,100341
2018-03-30T10:25:27.806Z,100339
2018-03-30T10:27:55.956Z,100339
2018-03-30T10:30:25.135Z,100338
2018-03-30T10:32:53.316Z,100334
2018-03-30T10:35:22.556Z,100332
2018-03-30T10:37:51.501Z,100336
2018-03-30T10:40:20.848Z,100340
2018-03-30T10:42:49.754Z,100339
2018-03-30T10:45:19.729Z,100344
2018-03-30T10:47:47.997Z,100332
2018-03-30T10:50:16.131Z,100335
2018-03-30T10:52:45.289Z,100321
2018-03-30T10:55:14.202Z,100330
2018-03-30T10:57:42.336Z,100322
2018-03-30T11:00:10.513Z,100332
2018-03-30T11:02:39.437Z,100318
2018-03-30T11:05:07.594Z,100317
2018-03-30T11:07:36.636Z,100316
2018-03-30T11:10:04.799Z,100313
2018-03-30T11:12:32.936Z,100301
2018-03-30T11:15:01.148Z,100298
2018-03-30T11:17:29.281Z,100306
2018-03-30T11:19:58.626Z,100297
2018-03-30T11:22:26.765Z,100299
2018-03-30T11:24:54.903Z,100289
2018-03-30T11:27:23.048Z,100283
2018-03-30T11:29:51.194Z,100288
2018-03-30T11:32:19.352Z,100281
2018-03-30T11:34:47.508Z,100265
2018-03-30T11:37:16.467Z,100270
2018-03-30T11:39:44.914Z,100257
2018-03-30T11:42:13.146Z,100253
2018-03-30T11:44:41.390Z,100265
2018-03-30T11:47:10.144Z,100254
2018-03-30T11:49:38.948Z,100253
2018-03-30T11:52:09.192Z,100252
2018-03-30T11:54:37.966Z,100250
2018-03-30T11:57:06.947Z,100240
2018-03-30T11:59:35.115Z,100238
2018-03-30T12:02:03.260Z,100232
2018-03-30T12:04:32.247Z,100231
2018-03-30T12:07:01.162Z,100227
2018-03-30T12:09:29.667Z,100231
2018-03-30T12:11:58.228Z,100228
2018-03-30T12:14:26.399Z,100234
2018-03-30T12:16:54.550Z,100235
2018-03-30T12:19:23.465Z,100231
2018-03-30T12:21:51.611Z,100241
2018-03-30T12:24:20.548Z,100233
2018-03-30T12:26:48.707Z,100240
2018-03-30T12:29:16.828Z,100236
2018-03-30T12:31:45.000Z,100239
2018-03-30T12:34:13.147Z,100238
2018-03-30T12:36:41.301Z,100228
2018-03-30T12:39:09.643Z,100228
2018-03-30T12:41:38.535Z,100226
2018-03-30T12:44:06.703Z,100217
2018-03-30T12:46:35.619Z,100212
2018-03-30T12:49:03.751Z,100219
2018-03-30T12:51:32.675Z,100218
2018-03-30T12:54:00.813Z,100216
2018-03-30T12:56:29.752Z,100208
2018-03-30T12:58:58.023Z,100209
2018-03-30T13:01:26.187Z,100201
2018-03-30T13:03:54.429Z,100196
2018-03-30T13:06:23.444Z,100185
2018-03-30T13:08:51.599Z,100178
2018-03-30T13:11:20.526Z,100181
2018-03-30T13:13:48.662Z,100182
2018-03-30T13:16:17.733Z,100171
2018-03-30T13:18:45.956Z,100167
2018-03-30T13:21:14.152Z,100162
2018-03-30T13:23:42.284Z,100154
2018-03-30T13:26:11.169Z,100150
2018-03-30T13:28:40.073Z,100138
2018-03-30T13:31:08.489Z,100138
2018-03-30T13:33:37.129Z,100147
2018-03-30T13:36:05.274Z,100147
2018-03-30T13:38:33.502Z,100140
2018-03-30T13:41:01.631Z,100128
2018-03-30T13:43:30.539Z,100124
2018-03-30T13:45:58.696Z,100121
2018-03-30T13:48:27.612Z,100124
2018-03-30T13:51:06.793Z,100128
2018-03-30T13:53:39.700Z,100118
2018-03-30T13:59:09.970Z,100116
2018-03-30T14:01:41.218Z,100102
2018-03-30T14:04:15.604Z,100096
2018-03-30T14:06:52.951Z,100106
2018-03-30T14:09:29.393Z,100094
2018-03-30T14:14:55.011Z,100079
2018-03-30T14:17:30.867Z,100084
2018-03-30T14:20:11.303Z,100086
2018-03-30T14:22:55.871Z,100081
2018-03-30T14:25:31.301Z,100077
2018-03-30T14:28:09.687Z,100081
2018-03-30T14:30:44.416Z,100061
2018-03-30T14:33:16.347Z,100064
2018-03-30T14:36:08.945Z,100060
2018-03-30T14:38:45.675Z,100068
2018-03-30T14:41:20.803Z,100058
2018-03-30T14:43:52.554Z,100066
2018-03-30T14:46:41.851Z,100067
2018-03-30T14:49:15.627Z,100062
2018-03-30T14:51:47.039Z,100057
2018-03-30T14:54:31.639Z,100062
2018-03-30T14:57:22.302Z,100056
2018-03-30T14:59:55.633Z,100052
2018-03-30T15:02:31.288Z,100046
2018-03-30T15:05:23.076Z,100050
2018-03-30T15:08:04.321Z,100041
2018-03-30T15:13:32.766Z,100036
2018-03-30T15:19:13.834Z,100033
2018-03-30T15:21:47.495Z,100035
2018-03-30T15:24:19.521Z,100028
2018-03-30T15:26:53.276Z,100025
2018-03-30T15:29:21.403Z,100026
2018-03-30T15:35:08.911Z,100029
2018-03-30T15:37:37.115Z,100021
2018-03-30T15:40:11.859Z,100023
2018-03-30T15:42:48.312Z,100020
2018-03-30T15:45:25.786Z,100020
2018-03-30T15:47:54.695Z,100023
2018-03-30T15:50:22.836Z,100018
2018-03-30T15:52:51.943Z,100006
2018-03-30T15:55:20.860Z,100010
2018-03-30T15:57:49.022Z,100009
2018-03-30T16:00:18.102Z,100008
2018-03-30T16:02:47.023Z,100011
2018-03-30T16:05:15.190Z,100002
2018-03-30T16:07:43.336Z,100006
2018-03-30T16:10:18.259Z,100003
2018-03-30T16:12:47.996Z,99998
2018-03-30T16:15:16.243Z,99992
2018-03-30T16:17:45.178Z,99994
2018-03-30T16:20:12.565Z,100003
2018-03-30T16:22:39.979Z,100000
2018-03-30T16:25:07.386Z,100007
2018-03-30T16:27:34.890Z,100009
2018-03-30T16:30:02.277Z,100008
2018-03-30T16:32:29.684Z,100012
2018-03-30T16:34:57.091Z,100011
2018-03-30T16:37:24.649Z,100017
2018-03-30T16:39:52.857Z,100021
2018-03-30T16:42:21.057Z,100017
2018-03-30T16:44:48.524Z,100009
2018-03-30T16:47:15.912Z,100006
2018-03-30T16:49:43.796Z,100010
2018-03-30T16:52:11.954Z,100012
2018-03-30T16:54:39.351Z,100012
2018-03-30T16:57:06.752Z,100012
2018-03-30T16:59:34.471Z,99999
2018-03-30T17:02:02.018Z,99997
2018-03-30T17:04:29.443Z,99994
2018-03-30T17:06:56.852Z,99981
2018-03-30T17:09:24.242Z,99981
2018-03-30T17:11:51.803Z,99989
2018-03-30T17:14:19.293Z,99988
2018-03-30T17:16:47.505Z,99978
2018-03-30T17:19:14.901Z,99981
2018-03-30T17:21:42.316Z,99978
2018-03-30T17:24:09.735Z,99970
2018-03-30T17:26:37.125Z,99965
2018-03-30T17:29:04.531Z,99968
2018-03-30T17:31:32.915Z,99970
2018-03-30T17:34:01.473Z,99967
2018-03-30T17:36:28.982Z,99958
2018-03-30T17:38:56.382Z,99948
2018-03-30T17:41:23.775Z,99964
2018-03-30T17:43:51.377Z,99957
2018-03-30T17:46:18.794Z,99959
2018-03-30T17:48:46.196Z,99951
2018-03-30T17:51:13.614Z,99960
2018-03-30T17:53:41.024Z,99963
2018-03-30T17:56:09.214Z,99967
2018-03-30T17:58:57.309Z,99961
2018-03-30T18:01:24.699Z,99966
2018-03-30T18:03:52.093Z,99966
2018-03-30T18:06:20.264Z,99973
2018-03-30T18:08:48.489Z,99969
2018-03-30T18:11:15.871Z,99973
2018-03-30T18:13:43.256Z,99978
2018-03-30T18:16:11.453Z,99972
2018-03-30T18:18:38.855Z,99973
2018-03-30T18:21:06.265Z,99973
2018-03-30T18:23:33.671Z,99971
2018-03-30T18:26:01.060Z,99968
2018-03-30T18:28:28.451Z,99964
2018-03-30T18:30:55.873Z,99973
2018-03-30T18:33:23.343Z,99973
2018-03-30T18:35:50.776Z,99973
2018-03-30T18:38:18.161Z,99977
2018-03-30T18:40:45.548Z,99977
2018-03-30T18:43:12.950Z,99979
2018-03-30T18:45:40.377Z,99980
2018-03-30T18:48:09.670Z,99969
2018-03-30T18:50:37.841Z,99979
2018-03-30T18:53:15.651Z,99982
2018-03-30T18:55:43.804Z,99978
2018-03-30T18:58:11.198Z,99988
2018-03-30T19:00:38.596Z,99971
2018-03-30T19:03:05.970Z,99983
2018-03-30T19:05:33.376Z,99986
2018-03-30T19:08:00.751Z,99983
2018-03-30T19:10:28.188Z,99986
2018-03-30T19:12:55.573Z,99978
2018-03-30T19:15:22.973Z,99984
2018-03-30T19:17:51.143Z,99983
2018-03-30T19:20:19.345Z,99993
2018-03-30T19:22:46.742Z,99982
2018-03-30T19:25:14.152Z,99985
2018-03-30T19:27:41.587Z,99985
2018-03-30T19:30:09.753Z,99989
2018-03-30T19:32:37.908Z,100002
2018-03-30T19:35:05.417Z,99994
2018-03-30T19:37:32.813Z,99990
2018-03-30T19:40:00.208Z,99988
2018-03-30T19:42:27.588Z,99991
2018-03-30T19:44:54.978Z,99996
2018-03-30T19:47:22.355Z,99999
2018-03-30T19:49:50.550Z,100002
2018-03-30T19:52:17.930Z,99995
2018-03-30T19:54:45.311Z,99998
2018-03-30T19:57:12.712Z,99994
2018-03-30T19:59:40.168Z,99993
2018-03-30T20:02:07.567Z,99998
2018-03-30T20:04:34.984Z,99986
2018-03-30T20:07:02.391Z,99986
2018-03-30T20:09:29.790Z,99973
2018-03-30T20:11:57.179Z,99976
2018-03-30T20:14:24.591Z,99971
2018-03-30T20:16:51.983Z,99958
2018-03-30T20:19:19.365Z,99962
2018-03-30T20:21:46.766Z,99950
2018-03-30T20:24:14.163Z,99961
2018-03-30T20:26:41.559Z,99956
2018-03-30T20:29:09.714Z,99952
2018-03-30T20:31:37.112Z,99945
2018-03-30T20:34:05.016Z,99950
2018-03-30T20:36:32.422Z,99947
2018-03-30T20:38:59.798Z,99941
2018-03-30T20:41:27.203Z,99942
2018-03-30T20:43:55.380Z,99937
2018-03-30T20:46:23.553Z,99941
2018-03-30T20:48:51.695Z,99931
2018-03-30T20:51:19.080Z,99927
2018-03-30T20:53:47.256Z,99932
2018-03-30T20:56:15.407Z,99933
2018-03-30T20:58:42.813Z,99924
2018-03-30T21:01:10.235Z,99912
2018-03-30T21:03:38.445Z,99924
2018-03-30T21:06:05.839Z,99926
2018-03-30T21:08:33.259Z,99919
2018-03-30T21:11:01.383Z,99911
2018-03-30T21:13:28.888Z,99903
2018-03-30T21:15:56.334Z,99900
2018-03-30T21:18:23.711Z,99906
2018-03-30T21:20:51.095Z,99915
2018-03-30T21:23:18.594Z,99914
2018-03-30T21:25:46.040Z,99915
2018-03-30T21:28:13.443Z,99905
2018-03-30T21:30:40.920Z,99903
2018-03-30T21:33:08.420Z,99909
2018-03-30T21:35:35.799Z,99907
2018-03-30T21:38:03.189Z,99905
2018-03-30T21:40:30.600Z,99915
2018-03-30T21:42:58.011Z,99914
2018-03-30T21:45:26.182Z,99909
2018-03-30T21:47:54.319Z,99902
2018-03-30T21:50:21.715Z,99911
2018-03-30T21:52:49.886Z,99908
2018-03-30T21:55:18.106Z,99909
2018-03-30T21:57:45.544Z,99912
2018-03-30T22:00:12.956Z,99906
2018-03-30T22:02:40.432Z,99911
2018-03-30T22:05:07.787Z,99908
2018-03-30T22:07:35.931Z,99914
2018-03-30T22:10:03.343Z,99919
2018-03-30T22:12:31.222Z,99917
2018-03-30T22:14:58.663Z,99903
2018-03-30T22:17:26.053Z,99916
2018-03-30T22:19:53.480Z,99912
2018-03-30T22:22:20.886Z,99901
2018-03-30T22:24:48.261Z,99909
2018-03-30T22:27:16.409Z,99912
2018-03-30T22:29:43.825Z,99914
2018-03-30T22:32:11.220Z,99904
2018-03-30T22:34:38.591Z,99899
2018-03-30T22:37:06.784Z,99895
2018-03-30T22:39:34.159Z,99890
2018-03-30T22:42:01.547Z,99899
2018-03-30T22:44:28.960Z,99897
2018-03-30T22:46:56.403Z,99893
2018-03-30T22:49:23.790Z,99886
2018-03-30T22:51:51.187Z,99886
2018-03-30T22:54:19.390Z,99881
2018-03-30T22:56:46.772Z,99877
2018-03-30T22:59:14.167Z,99870
2018-03-30T23:01:42.303Z,99862
2018-03-30T23:04:09.720Z,99856
2018-03-30T23:06:37.101Z,99859
2018-03-30T23:09:04.498Z,99856
2018-03-30T23:11:32.659Z,99859
2018-03-30T23:14:00.068Z,99852
2018-03-30T23:16:27.465Z,99848
2018-03-30T23:18:54.838Z,99849
2018-03-30T23:21:23.066Z,99847
2018-03-30T23:23:50.507Z,99845
2018-03-30T23:26:17.895Z,99834
2018-03-30T23:28:45.275Z,99829
2018-03-30T23:31:12.676Z,99819
2018-03-30T23:33:40.130Z,99812
2018-03-30T23:36:07.533Z,99802
2018-03-30T23:38:34.917Z,99786
2018-03-30T23:41:02.336Z,99799
2018-03-30T23:43:29.727Z,99802
2018-03-30T23:45:57.111Z,99808
2018-03-30T23:48:24.530Z,99786
2018-03-30T23:50:52.680Z,99798
2018-03-30T23:53:20.050Z,99797
2018-03-30T23:55:48.247Z,99807
2018-03-30T23:58:15.762Z,99803
